Nearby METAR Reports

 

LSZS - Samedan, Switzerland
Distance from station: NNE 34mi, 55km
Updated: Tue, 22-Jun-2021 5:50am CEST
Clear
Clear
 Wind from varies
Wind: varies 2 mph , 4 km/h
Temperature: 43°F , 6°C
Dew Point: 25°F , -4°C
Humidity: 49%
Barometer: 30 inHg , 1016 hPa
Clouds: Clear
Visibility: 6 miles , 9 km
2021/06/22 03:50 LSZS 220350Z AUTO VRB02KT 9000 NCD 06/M04 Q1016
LSZA - Lugano (pvt/Aut), Switzerland
Distance from station: WSW 31mi, 50km
Updated: Tue, 22-Jun-2021 5:50am CEST
Mostly Cloudy
Mostly Cloudy
 Wind from NNE
Wind: NNE 3 mph , 6 km/h
Temperature: 64°F , 18°C
Dew Point: 63°F , 17°C
Humidity: 94%
Barometer: 29.83 inHg , 1010 hPa
Clouds: Mostly Cloudy
Visibility: 6 miles , 10 km
Cloud details: Mostly Cloudy 7000 ft
2021/06/22 03:50 LSZA 220350Z AUTO 03003KT 9999 BKN070 18/17 Q1010
 
LSZL - Locarno, Switzerland
Distance from station: W 32mi, 51km
Updated: Tue, 22-Jun-2021 5:50am CEST

 Wind from NE
Wind: NE 5 mph , 7 km/h
Temperature: 64°F , 18°C
Dew Point: 64°F , 18°C
Humidity: 100%
Barometer: 29.83 inHg , 1010 hPa
Visibility: 6 miles , 10 km
2021/06/22 03:50 LSZL 220350Z AUTO 05004KT 9999NDV ////// 18/18 Q1010 RMK MIS
LIME - Bergamo/Orio Ser, Italy
Distance from station: SSE 31mi, 50km
Updated: Tue, 22-Jun-2021 5:50am CEST
Clear
Clear
 Wind from NNW
Wind: NNW 2 mph , 4 km/h
Temperature: 64°F , 18°C
Dew Point: 59°F , 15°C
Humidity: 83%
Barometer: 29.83 inHg , 1010 hPa
Summary: Clear
Visibility: greater than 7 miles , 10 km
2021/06/22 03:50 LIME 220350Z 33002KT CAVOK 18/15 Q1010 NOSIG
 
LIML - Milano/Linate, Italy
Distance from station: SSW 46mi, 74km
Updated: Tue, 22-Jun-2021 5:50am CEST
Few Clouds
Few Clouds
 Wind from WNW
Wind: WNW 5 mph , 7 km/h
Temperature: 70°F , 21°C
Dew Point: 61°F , 16°C
Humidity: 73%
Barometer: 29.8 inHg , 1009 hPa
Clouds: Few Clouds
Visibility: 6 miles , 10 km
Cloud details: Few Clouds 7000 ft
2021/06/22 03:50 LIML 220350Z 30004KT 9999 FEW070 21/16 Q1009 NOSIG
LIMC - Milano/Malpensa, Italy
Distance from station: SW 52mi, 84km
Updated: Tue, 22-Jun-2021 5:50am CEST
Mostly Cloudy
Mostly Cloudy
 Wind from NE
Wind: NE 3 mph , 6 km/h
Temperature: 64°F , 18°C
Dew Point: 63°F , 17°C
Humidity: 94%
Barometer: 29.83 inHg , 1010 hPa
Clouds: Mostly Cloudy
Visibility: 6 miles , 10 km
Cloud details: Mostly Cloudy 3000 ft
2021/06/22 03:50 LIMC 220350Z 04003KT 9999 BKN030 18/17 Q1010 NOSIG
 
LIPO - Brescia/Montichi, Italy
Distance from station: SSE 57mi, 91km
Updated: Tue, 22-Jun-2021 5:50am CEST
Clear
Clear
 Wind from W
Wind: W 8 mph , 13 km/h
Temperature: 70°F , 21°C
Dew Point: 59°F , 15°C
Humidity: 69%
Barometer: 29.8 inHg , 1009 hPa
Clouds: Clear
Visibility: 6 miles , 10 km
2021/06/22 03:50 LIPO 220350Z AUTO 27007KT 9999 NCD 21/15 Q1009
LIPB - Bolzano(Civ/It-A, Italy
Distance from station: ENE 72mi, 116km
Updated: Mon, 21-Jun-2021 10:50pm CEST
NOT Current
Clear
Clear
 Wind from S
Wind: S 7 mph , 11 km/h
Temperature: 79°F , 26°C
Dew Point: 54°F , 12°C
Humidity: 42%
Barometer: 29.77 inHg , 1008 hPa
Summary: Clear
Visibility: greater than 7 miles , 10 km
2021/06/21 20:50 LIPB 212050Z 19006KT 160V220 CAVOK 26/12 Q1008
 
LIVE - Resia Pass, Italy
Distance from station: NNE 56mi, 90km
Updated: Tue, 22-Jun-2021 5:55am CEST
Clear
Clear
 Wind from NNE
Wind: NNE 3 mph , 6 km/h
Temperature: 55°F , 13°C
Dew Point: 52°F , 11°C
Humidity: 88%
Barometer: 29.94 inHg , 1014 hPa
Summary: Clear
Visibility: greater than 7 miles , 10 km
2021/06/22 03:55 LIVE 220355Z 03003KT CAVOK 13/11 Q1014 RMK FEW FEW080 VIS MIN 9999
LIVR - Rolle Pass, Italy
Distance from station: E 91mi, 146km
Updated: Tue, 22-Jun-2021 5:55am CEST
Partly Cloudy
Partly Cloudy
 Wind from SSE
Wind: SSE 5 mph , 7 km/h
Temperature: 54°F , 12°C
Dew Point: 52°F , 11°C
Humidity: 94%
Barometer: 30.09 inHg , 1019 hPa
Clouds: Partly Cloudy
Visibility: 6 miles , 10 km
Cloud details: Partly Cloudy 3000 ft
2021/06/22 03:55 LIVR 220355Z 15004KT 9999 SCT030 12/11 Q1019 RMK BKN SCT070 MON CLD SCT VIS MIN 9999
 
LIMS - Piacenza (it-Afb, Italy
Distance from station: S 87mi, 140km
Updated: Mon, 21-Jun-2021 7:55pm CEST
NOT Current
Clear
Clear
 Wind from SW
Wind: SW 16 mph , 26 km/h
Temperature: 82°F , 28°C
Heat Index: 83°F , 28°C
Dew Point: 63°F , 17°C
Humidity: 51%
Barometer: 29.74 inHg , 1007 hPa
Summary: Clear
Visibility: greater than 7 miles , 10 km
2021/06/21 17:55 LIMS 211755Z 23014KT 200V280 CAVOK 28/17 Q1007
LIPE - Bologna/Borgo (a, Italy
Distance from station: NW 2mi, 4km
Updated: Tue, 22-Jun-2021 5:50am CEST
Clear
Clear
 Wind from varies
Wind: varies 2 mph , 4 km/h
Temperature: 70°F , 21°C
Dew Point: 61°F , 16°C
Humidity: 73%
Barometer: 29.8 inHg , 1009 hPa
Summary: Clear
Visibility: greater than 7 miles , 10 km
2021/06/22 03:50 LIPE 220350Z VRB02KT CAVOK 21/16 Q1009
 
LIRQ - Firenze/Peretola, Italy
Distance from station: S 50mi, 80km
Updated: Tue, 22-Jun-2021 5:50am CEST
Clear
Clear
 Wind from NNW
Wind: NNW 1 mph , 2 km/h
Temperature: 70°F , 21°C
Dew Point: 66°F , 19°C
Humidity: 88%
Barometer: 29.83 inHg , 1010 hPa
Summary: Clear
Visibility: greater than 7 miles , 10 km
2021/06/22 03:50 LIRQ 220350Z 34001KT CAVOK 21/19 Q1010
LIPR - Rimini (civ/It-A, Italy
Distance from station: ESE 71mi, 115km
Updated: Tue, 22-Jun-2021 5:50am CEST
Clear
Clear
 Wind from SE
Wind: SE 3 mph , 6 km/h
Temperature: 72°F , 22°C
Dew Point: 63°F , 17°C
Humidity: 73%
Barometer: 29.8 inHg , 1009 hPa
Clouds: Clear
Visibility: 6 miles , 10 km
2021/06/22 03:50 LIPR 220350Z AUTO 14003KT 9999 NCD 22/17 Q1009
 
LIRP - Pisa (civ/It-Afb, Italy
Distance from station: SW 75mi, 120km
Updated: Tue, 22-Jun-2021 5:45am CEST
Partly Cloudy
Partly Cloudy
 Wind from ESE
Wind: ESE 3 mph , 6 km/h
Temperature: 66°F , 19°C
Dew Point: 64°F , 18°C
Humidity: 94%
Barometer: 29.83 inHg , 1010 hPa
Clouds: Partly Cloudy
Visibility: 6 miles , 10 km
Cloud details: Few Clouds 1000 ft
Partly Cloudy 3000 ft
2021/06/22 03:45 LIRP 220345Z 12003KT 9999 FEW010 SCT030 19/18 Q1010 NOSIG
LIRU - Rome/Urbe (it-Af, Italy
Distance from station: N 4mi, 7km
Updated: Mon, 21-Jun-2021 7:50pm CEST
NOT Current
Clear
Clear
 Wind from WSW
Wind: WSW 5 mph , 7 km/h
Temperature: 86°F , 30°C
Dew Point: 55°F , 13°C
Humidity: 35%
Barometer: 29.83 inHg , 1010 hPa
Summary: Clear
Visibility: greater than 7 miles , 10 km
2021/06/21 17:50 LIRU 211750Z 24004KT 190V270 CAVOK 30/13 Q1010
 
LIRN - Naples/Capodichi, Italy
Distance from station: SE 116mi, 187km
Updated: Tue, 22-Jun-2021 5:50am CEST
Clear
Clear
 Wind from N
Wind: N 3 mph , 6 km/h
Temperature: 75°F , 24°C
Dew Point: 63°F , 17°C
Humidity: 65%
Barometer: 29.85 inHg , 1011 hPa
Summary: Clear
Visibility: greater than 7 miles , 10 km
2021/06/22 03:50 LIRN 220350Z 35003KT CAVOK 24/17 Q1011 NOSIG
LIPZ - Venezia/Tessera, Italy
Distance from station: NE 85mi, 137km
Updated: Tue, 22-Jun-2021 5:50am CEST
Clear
Clear
 Wind from W
Wind: W 3 mph , 6 km/h
Temperature: 70°F , 21°C
Dew Point: 66°F , 19°C
Humidity: 88%
Barometer: 29.77 inHg , 1008 hPa
Summary: Clear
Visibility: greater than 7 miles , 10 km
2021/06/22 03:50 LIPZ 220350Z 28003KT CAVOK 21/19 Q1008 NOSIG
 
LICJ - Palermo/Point Ra, Italy
Distance from station: W 14mi, 22km
Updated: Tue, 22-Jun-2021 5:50am CEST
Clear
Clear
 Wind from NE
Wind: NE 3 mph , 6 km/h
Temperature: 77°F , 25°C
Dew Point: 66°F , 19°C
Humidity: 69%
Barometer: 29.83 inHg , 1010 hPa
Summary: Clear
Visibility: greater than 7 miles , 10 km
2021/06/22 03:50 LICJ 220350Z 05003KT CAVOK 25/19 Q1010
LFMN - Nice/Cote D'azur, France
Distance from station: SW 6mi, 9km
Updated: Tue, 22-Jun-2021 6:00am CEST
Few Clouds
Few Clouds
 Wind from NW
Wind: NW 9 mph , 15 km/h
Temperature: 70°F , 21°C
Dew Point: 63°F , 17°C
Humidity: 78%
Barometer: 29.83 inHg , 1010 hPa
Clouds: Few Clouds
Visibility: 6 miles , 10 km
Cloud details: Few Clouds 10000 ft
2021/06/22 04:00 LFMN 220400Z 32008KT 9999 FEW100 21/17 Q1010 NOSIG
 
LFPO - Paris/Orly, France
Distance from station: S 10mi, 15km
Updated: Tue, 22-Jun-2021 6:00am CEST
Clear
Clear
 Wind from WSW
Wind: WSW 2 mph , 4 km/h
Temperature: 59°F , 15°C
Dew Point: 57°F , 14°C
Humidity: 94%
Barometer: 29.83 inHg , 1010 hPa
Summary: Clear
Visibility: greater than 7 miles , 10 km
2021/06/22 04:00 LFPO 220400Z 25002KT CAVOK 15/14 Q1010 NOSIG
EDDM - Munich-Flughafen, Germany
Distance from station: NE 18mi, 30km
Updated: Tue, 22-Jun-2021 5:50am CEST
Clear
Clear
 Wind from W
Wind: W 2 mph , 4 km/h
Temperature: 57°F , 14°C
Dew Point: 57°F , 14°C
Humidity: 100%
Barometer: 29.88 inHg , 1012 hPa
Summary: Clear
Visibility: greater than 7 miles , 10 km
2021/06/22 03:50 EDDM 220350Z 28002KT CAVOK 14/14 Q1012 NOSIG
 
LOWW - Vienna/Schwechat, Austria
Distance from station: SE 11mi, 18km
Updated: Tue, 22-Jun-2021 5:50am CEST
Few Clouds
Few Clouds
 Wind from NW
Wind: NW 7 mph , 11 km/h
Temperature: 70°F , 21°C
Dew Point: 63°F , 17°C
Humidity: 78%
Barometer: 29.8 inHg , 1009 hPa
Clouds: Few Clouds
Visibility: 6 miles , 10 km
Cloud details: Few Clouds 3000 ft
Mostly Cloudy 4600 ft
Few Clouds 5000 ft
2021/06/22 03:50 LOWW 220350Z 31006KT 9999 FEW030 BKN046 FEW050CB 21/17 Q1009 NOSIG
KSFO - San Francisco, California, USA
Distance from station: SSE 11mi, 18km
Updated: Tue, 22-Jun-2021 5:56am CEST
Partly Cloudy
Partly Cloudy
 Wind from SW
Wind: SW 12 mph , 19 km/h, Gust: 18 mph , 30 km/h
Temperature: 64°F , 18°C
Dew Point: 54°F , 12°C
Humidity: 68%
Barometer: 29.91 inHg , 1012.9 hPa
Clouds: Partly Cloudy
Visibility: 10 miles , 16 km
Cloud details: Few Clouds 900 ft
Partly Cloudy 1600 ft
2021/06/22 03:56 KSFO 220356Z 23010G16KT 10SM FEW009 SCT016 18/12 A2991 RMK AO2 SLP130 T01830122
 
KNYC - Nyc/Central Park, New York, USA
Distance from station: NNE 5mi, 8km
Updated: Tue, 22-Jun-2021 5:51am CEST
Clear
Clear
 Wind from varies
Wind: varies 5 mph , 7 km/h
Temperature: 79°F , 26°C
Dew Point: 66°F , 19°C
Humidity: 65%
Barometer: 29.65 inHg , 1004.1 hPa
Clouds: Clear
Visibility: 10 miles , 16 km
2021/06/22 03:51 KNYC 220351Z AUTO VRB04KT 10SM CLR 26/19 A2965 RMK AO2 RAB19E33 SLP031 P0000 T02610189 $

Metar display script from Saratoga-Weather.org